sensor_id;sensor_type;location;lat;lon;timestamp;temperature;humidity
57058;DHT22;55017;52.848;6.748;2023-04-25T00:01:56;7.40;99.90
57058;DHT22;55017;52.848;6.748;2023-04-25T00:04:22;7.30;99.90
57058;DHT22;55017;52.848;6.748;2023-04-25T00:06:47;7.40;99.90
57058;DHT22;55017;52.848;6.748;2023-04-25T00:09:13;7.30;99.90
57058;DHT22;55017;52.848;6.748;2023-04-25T00:11:40;7.40;99.90
57058;DHT22;55017;52.848;6.748;2023-04-25T00:14:05;7.30;99.90
57058;DHT22;55017;52.848;6.748;2023-04-25T00:16:32;7.30;99.90
57058;DHT22;55017;52.848;6.748;2023-04-25T00:19:00;7.30;99.90
57058;DHT22;55017;52.848;6.748;2023-04-25T00:21:26;7.20;99.90
57058;DHT22;55017;52.848;6.748;2023-04-25T00:23:54;7.30;99.90
57058;DHT22;55017;52.848;6.748;2023-04-25T00:26:19;7.20;99.90
57058;DHT22;55017;52.848;6.748;2023-04-25T00:28:46;7.10;99.90
57058;DHT22;55017;52.848;6.748;2023-04-25T00:31:12;7.20;99.90
57058;DHT22;55017;52.848;6.748;2023-04-25T00:33:38;7.00;99.90
57058;DHT22;55017;52.848;6.748;2023-04-25T00:36:03;7.00;99.90
57058;DHT22;55017;52.848;6.748;2023-04-25T00:38:29;6.90;99.90
57058;DHT22;55017;52.848;6.748;2023-04-25T00:40:55;6.90;99.90
57058;DHT22;55017;52.848;6.748;2023-04-25T00:43:21;6.80;99.90
57058;DHT22;55017;52.848;6.748;2023-04-25T00:45:47;6.80;99.90
57058;DHT22;55017;52.848;6.748;2023-04-25T00:48:14;6.80;99.90
57058;DHT22;55017;52.848;6.748;2023-04-25T00:50:40;6.70;99.90
57058;DHT22;55017;52.848;6.748;2023-04-25T00:53:06;6.70;99.90
57058;DHT22;55017;52.848;6.748;2023-04-25T00:55:32;6.80;99.90
57058;DHT22;55017;52.848;6.748;2023-04-25T00:58:00;6.60;99.90
57058;DHT22;55017;52.848;6.748;2023-04-25T01:00:25;6.70;99.90
57058;DHT22;55017;52.848;6.748;2023-04-25T01:02:52;6.70;99.90
57058;DHT22;55017;52.848;6.748;2023-04-25T01:05:17;6.70;99.90
57058;DHT22;55017;52.848;6.748;2023-04-25T01:07:44;6.90;99.90
57058;DHT22;55017;52.848;6.748;2023-04-25T01:10:10;6.80;99.90
57058;DHT22;55017;52.848;6.748;2023-04-25T01:12:36;6.70;99.90
57058;DHT22;55017;52.848;6.748;2023-04-25T01:15:01;6.70;99.90
57058;DHT22;55017;52.848;6.748;2023-04-25T01:17:28;6.70;99.90
57058;DHT22;55017;52.848;6.748;2023-04-25T01:19:54;6.80;99.90
57058;DHT22;55017;52.848;6.748;2023-04-25T01:22:20;6.70;99.90
57058;DHT22;55017;52.848;6.748;2023-04-25T01:24:46;6.60;99.90
57058;DHT22;55017;52.848;6.748;2023-04-25T01:27:12;6.60;99.90
57058;DHT22;55017;52.848;6.748;2023-04-25T01:29:38;6.70;99.90
57058;DHT22;55017;52.848;6.748;2023-04-25T01:32:05;6.70;99.90
57058;DHT22;55017;52.848;6.748;2023-04-25T01:34:31;6.50;99.90
57058;DHT22;55017;52.848;6.748;2023-04-25T01:36:59;6.50;99.90
57058;DHT22;55017;52.848;6.748;2023-04-25T01:39:25;6.50;99.90
57058;DHT22;55017;52.848;6.748;2023-04-25T01:41:51;6.40;99.90
57058;DHT22;55017;52.848;6.748;2023-04-25T01:44:16;6.40;99.90
57058;DHT22;55017;52.848;6.748;2023-04-25T01:46:42;6.20;99.90
57058;DHT22;55017;52.848;6.748;2023-04-25T01:49:08;6.30;99.90
57058;DHT22;55017;52.848;6.748;2023-04-25T01:51:33;6.20;99.90
57058;DHT22;55017;52.848;6.748;2023-04-25T01:53:59;6.20;99.90
57058;DHT22;55017;52.848;6.748;2023-04-25T01:56:30;6.10;99.90
57058;DHT22;55017;52.848;6.748;2023-04-25T01:58:57;6.00;99.90
57058;DHT22;55017;52.848;6.748;2023-04-25T02:01:22;6.00;99.90
57058;DHT22;55017;52.848;6.748;2023-04-25T02:03:48;6.10;99.90
57058;DHT22;55017;52.848;6.748;2023-04-25T02:06:13;5.90;99.90
57058;DHT22;55017;52.848;6.748;2023-04-25T02:08:39;6.10;99.90
57058;DHT22;55017;52.848;6.748;2023-04-25T02:11:04;6.10;99.90
57058;DHT22;55017;52.848;6.748;2023-04-25T02:13:30;6.10;99.90
57058;DHT22;55017;52.848;6.748;2023-04-25T02:15:56;6.10;99.90
57058;DHT22;55017;52.848;6.748;2023-04-25T02:18:21;6.20;99.90
57058;DHT22;55017;52.848;6.748;2023-04-25T02:20:47;6.20;99.90
57058;DHT22;55017;52.848;6.748;2023-04-25T02:23:13;6.20;99.90
57058;DHT22;55017;52.848;6.748;2023-04-25T02:25:40;6.20;99.90
57058;DHT22;55017;52.848;6.748;2023-04-25T02:28:06;6.20;99.90
57058;DHT22;55017;52.848;6.748;2023-04-25T02:30:32;6.20;99.90
57058;DHT22;55017;52.848;6.748;2023-04-25T02:32:57;6.30;99.90
57058;DHT22;55017;52.848;6.748;2023-04-25T02:35:23;6.20;99.90
57058;DHT22;55017;52.848;6.748;2023-04-25T02:37:48;6.30;99.90
57058;DHT22;55017;52.848;6.748;2023-04-25T02:40:14;6.20;99.90
57058;DHT22;55017;52.848;6.748;2023-04-25T02:42:39;6.20;99.90
57058;DHT22;55017;52.848;6.748;2023-04-25T02:45:05;6.20;99.90
57058;DHT22;55017;52.848;6.748;2023-04-25T02:47:31;6.30;99.90
57058;DHT22;55017;52.848;6.748;2023-04-25T02:49:57;6.20;99.90
57058;DHT22;55017;52.848;6.748;2023-04-25T02:52:22;6.20;99.90
57058;DHT22;55017;52.848;6.748;2023-04-25T02:54:48;6.20;99.90
57058;DHT22;55017;52.848;6.748;2023-04-25T02:57:13;6.20;99.90
57058;DHT22;55017;52.848;6.748;2023-04-25T02:59:39;6.20;99.90
57058;DHT22;55017;52.848;6.748;2023-04-25T03:02:05;6.20;99.90
57058;DHT22;55017;52.848;6.748;2023-04-25T03:04:30;6.20;99.90
57058;DHT22;55017;52.848;6.748;2023-04-25T03:06:56;6.20;99.90
57058;DHT22;55017;52.848;6.748;2023-04-25T03:09:22;6.20;99.90
57058;DHT22;55017;52.848;6.748;2023-04-25T03:11:47;6.20;99.90
57058;DHT22;55017;52.848;6.748;2023-04-25T03:14:13;6.10;99.90
57058;DHT22;55017;52.848;6.748;2023-04-25T03:16:39;6.10;99.90
57058;DHT22;55017;52.848;6.748;2023-04-25T03:19:05;6.10;99.90
57058;DHT22;55017;52.848;6.748;2023-04-25T03:21:32;6.10;99.90
57058;DHT22;55017;52.848;6.748;2023-04-25T03:23:58;6.10;99.90
57058;DHT22;55017;52.848;6.748;2023-04-25T03:26:24;6.20;99.90
57058;DHT22;55017;52.848;6.748;2023-04-25T03:28:50;6.20;99.90
57058;DHT22;55017;52.848;6.748;2023-04-25T03:31:15;6.20;99.90
57058;DHT22;55017;52.848;6.748;2023-04-25T03:33:41;6.10;99.90
57058;DHT22;55017;52.848;6.748;2023-04-25T03:36:07;6.20;99.90
57058;DHT22;55017;52.848;6.748;2023-04-25T03:38:33;6.20;99.90
57058;DHT22;55017;52.848;6.748;2023-04-25T03:40:58;6.20;99.90
57058;DHT22;55017;52.848;6.748;2023-04-25T03:43:24;6.20;99.90
57058;DHT22;55017;52.848;6.748;2023-04-25T03:45:49;6.10;99.90
57058;DHT22;55017;52.848;6.748;2023-04-25T03:48:15;6.10;99.90
57058;DHT22;55017;52.848;6.748;2023-04-25T03:50:41;6.00;99.90
57058;DHT22;55017;52.848;6.748;2023-04-25T03:53:06;6.20;99.90
57058;DHT22;55017;52.848;6.748;2023-04-25T03:55:32;6.00;99.90
57058;DHT22;55017;52.848;6.748;2023-04-25T03:57:58;6.00;99.90
57058;DHT22;55017;52.848;6.748;2023-04-25T04:00:24;6.00;99.90
57058;DHT22;55017;52.848;6.748;2023-04-25T04:02:50;6.60;99.90
57058;DHT22;55017;52.848;6.748;2023-04-25T04:05:16;6.00;99.90
57058;DHT22;55017;52.848;6.748;2023-04-25T04:07:41;6.00;99.90
57058;DHT22;55017;52.848;6.748;2023-04-25T04:10:09;6.10;99.90
57058;DHT22;55017;52.848;6.748;2023-04-25T04:12:36;5.90;99.90
57058;DHT22;55017;52.848;6.748;2023-04-25T04:15:02;6.00;99.90
57058;DHT22;55017;52.848;6.748;2023-04-25T04:17:29;6.00;99.90
57058;DHT22;55017;52.848;6.748;2023-04-25T04:19:55;6.00;99.90
57058;DHT22;55017;52.848;6.748;2023-04-25T04:22:21;6.00;99.90
57058;DHT22;55017;52.848;6.748;2023-04-25T04:24:47;6.00;99.90
57058;DHT22;55017;52.848;6.748;2023-04-25T04:27:13;5.90;99.90
57058;DHT22;55017;52.848;6.748;2023-04-25T04:29:39;5.90;99.90
57058;DHT22;55017;52.848;6.748;2023-04-25T04:32:04;5.90;99.90
57058;DHT22;55017;52.848;6.748;2023-04-25T04:34:30;5.80;99.90
57058;DHT22;55017;52.848;6.748;2023-04-25T04:36:56;5.90;99.90
57058;DHT22;55017;52.848;6.748;2023-04-25T04:39:22;5.70;99.90
57058;DHT22;55017;52.848;6.748;2023-04-25T04:41:48;5.90;99.90
57058;DHT22;55017;52.848;6.748;2023-04-25T04:44:14;5.80;99.90
57058;DHT22;55017;52.848;6.748;2023-04-25T04:46:40;5.70;99.90
57058;DHT22;55017;52.848;6.748;2023-04-25T04:49:09;5.80;99.90
57058;DHT22;55017;52.848;6.748;2023-04-25T04:51:34;5.90;99.90
57058;DHT22;55017;52.848;6.748;2023-04-25T04:54:00;5.80;99.90
57058;DHT22;55017;52.848;6.748;2023-04-25T04:56:28;5.90;99.90
57058;DHT22;55017;52.848;6.748;2023-04-25T04:58:56;6.00;99.90
57058;DHT22;55017;52.848;6.748;2023-04-25T05:01:22;5.90;99.90
57058;DHT22;55017;52.848;6.748;2023-04-25T05:03:48;5.90;99.90
57058;DHT22;55017;52.848;6.748;2023-04-25T05:06:13;6.00;99.90
57058;DHT22;55017;52.848;6.748;2023-04-25T05:08:39;5.90;99.90
57058;DHT22;55017;52.848;6.748;2023-04-25T05:11:05;5.90;99.90
57058;DHT22;55017;52.848;6.748;2023-04-25T05:13:30;6.00;99.90
57058;DHT22;55017;52.848;6.748;2023-04-25T05:15:56;5.80;99.90
57058;DHT22;55017;52.848;6.748;2023-04-25T05:18:21;6.00;99.90
57058;DHT22;55017;52.848;6.748;2023-04-25T05:20:47;6.00;99.90
57058;DHT22;55017;52.848;6.748;2023-04-25T05:23:13;6.10;99.90
57058;DHT22;55017;52.848;6.748;2023-04-25T05:25:38;6.00;99.90
57058;DHT22;55017;52.848;6.748;2023-04-25T05:28:04;6.20;99.90
57058;DHT22;55017;52.848;6.748;2023-04-25T05:30:30;6.10;99.90
57058;DHT22;55017;52.848;6.748;2023-04-25T05:32:56;6.20;99.90
57058;DHT22;55017;52.848;6.748;2023-04-25T05:35:22;6.20;99.90
57058;DHT22;55017;52.848;6.748;2023-04-25T05:37:47;6.20;99.90
57058;DHT22;55017;52.848;6.748;2023-04-25T05:40:13;6.20;99.90
57058;DHT22;55017;52.848;6.748;2023-04-25T05:42:39;6.20;99.90
57058;DHT22;55017;52.848;6.748;2023-04-25T05:45:05;6.30;99.90
57058;DHT22;55017;52.848;6.748;2023-04-25T05:47:31;6.30;99.90
57058;DHT22;55017;52.848;6.748;2023-04-25T05:49:56;6.40;99.90
57058;DHT22;55017;52.848;6.748;2023-04-25T05:52:22;6.40;99.90
57058;DHT22;55017;52.848;6.748;2023-04-25T05:54:48;6.50;99.90
57058;DHT22;55017;52.848;6.748;2023-04-25T05:57:24;6.60;99.90
57058;DHT22;55017;52.848;6.748;2023-04-25T05:59:51;6.60;99.90
57058;DHT22;55017;52.848;6.748;2023-04-25T06:02:17;6.70;99.90
57058;DHT22;55017;52.848;6.748;2023-04-25T06:04:42;6.80;99.90
57058;DHT22;55017;52.848;6.748;2023-04-25T06:07:08;6.80;99.90
57058;DHT22;55017;52.848;6.748;2023-04-25T06:09:34;6.80;99.90
57058;DHT22;55017;52.848;6.748;2023-04-25T06:12:00;6.80;99.90
57058;DHT22;55017;52.848;6.748;2023-04-25T06:14:26;6.90;99.90
57058;DHT22;55017;52.848;6.748;2023-04-25T06:16:52;6.90;99.90
57058;DHT22;55017;52.848;6.748;2023-04-25T06:19:17;7.00;99.90
57058;DHT22;55017;52.848;6.748;2023-04-25T06:21:43;7.10;99.90
57058;DHT22;55017;52.848;6.748;2023-04-25T06:24:09;7.10;99.90
57058;DHT22;55017;52.848;6.748;2023-04-25T06:26:35;7.20;99.90
57058;DHT22;55017;52.848;6.748;2023-04-25T06:29:01;7.30;99.90
57058;DHT22;55017;52.848;6.748;2023-04-25T06:31:27;7.40;99.90
57058;DHT22;55017;52.848;6.748;2023-04-25T06:33:54;7.50;99.90
57058;DHT22;55017;52.848;6.748;2023-04-25T06:36:20;7.60;99.90
57058;DHT22;55017;52.848;6.748;2023-04-25T06:38:50;7.70;99.90
57058;DHT22;55017;52.848;6.748;2023-04-25T06:41:17;7.80;99.90
57058;DHT22;55017;52.848;6.748;2023-04-25T06:43:42;7.80;99.90
57058;DHT22;55017;52.848;6.748;2023-04-25T06:46:08;7.80;99.90
57058;DHT22;55017;52.848;6.748;2023-04-25T06:48:33;8.00;99.90
57058;DHT22;55017;52.848;6.748;2023-04-25T06:50:59;8.10;99.90
57058;DHT22;55017;52.848;6.748;2023-04-25T06:53:24;8.00;99.90
57058;DHT22;55017;52.848;6.748;2023-04-25T06:55:50;8.20;99.90
57058;DHT22;55017;52.848;6.748;2023-04-25T06:58:15;8.30;99.90
57058;DHT22;55017;52.848;6.748;2023-04-25T07:00:41;8.30;99.90
57058;DHT22;55017;52.848;6.748;2023-04-25T07:03:07;8.50;99.90
57058;DHT22;55017;52.848;6.748;2023-04-25T07:05:32;8.60;99.90
57058;DHT22;55017;52.848;6.748;2023-04-25T07:07:58;8.60;99.90
57058;DHT22;55017;52.848;6.748;2023-04-25T07:10:24;8.70;99.90
57058;DHT22;55017;52.848;6.748;2023-04-25T07:12:50;8.70;99.90
57058;DHT22;55017;52.848;6.748;2023-04-25T07:15:16;8.80;99.90
57058;DHT22;55017;52.848;6.748;2023-04-25T07:17:41;8.70;99.90
57058;DHT22;55017;52.848;6.748;2023-04-25T07:20:08;8.70;99.90
57058;DHT22;55017;52.848;6.748;2023-04-25T07:22:34;8.90;99.90
57058;DHT22;55017;52.848;6.748;2023-04-25T07:25:00;8.90;99.90
57058;DHT22;55017;52.848;6.748;2023-04-25T07:27:26;8.90;99.90
57058;DHT22;55017;52.848;6.748;2023-04-25T07:29:51;9.00;99.90
57058;DHT22;55017;52.848;6.748;2023-04-25T07:32:17;9.20;99.90
57058;DHT22;55017;52.848;6.748;2023-04-25T07:34:43;9.30;99.90
57058;DHT22;55017;52.848;6.748;2023-04-25T07:37:08;9.50;99.90
57058;DHT22;55017;52.848;6.748;2023-04-25T07:39:34;9.50;99.90
57058;DHT22;55017;52.848;6.748;2023-04-25T07:42:00;9.70;99.90
57058;DHT22;55017;52.848;6.748;2023-04-25T07:44:27;9.60;99.90
57058;DHT22;55017;52.848;6.748;2023-04-25T07:46:53;9.80;99.90
57058;DHT22;55017;52.848;6.748;2023-04-25T07:49:18;9.70;99.90
57058;DHT22;55017;52.848;6.748;2023-04-25T07:51:44;9.70;99.70
57058;DHT22;55017;52.848;6.748;2023-04-25T07:54:13;9.80;98.60
57058;DHT22;55017;52.848;6.748;2023-04-25T07:56:39;9.80;97.50
57058;DHT22;55017;52.848;6.748;2023-04-25T07:59:04;9.70;96.20
57058;DHT22;55017;52.848;6.748;2023-04-25T08:01:30;9.50;95.30
57058;DHT22;55017;52.848;6.748;2023-04-25T08:03:56;9.60;94.90
57058;DHT22;55017;52.848;6.748;2023-04-25T08:06:21;9.80;95.00
57058;DHT22;55017;52.848;6.748;2023-04-25T08:08:47;9.70;94.20
57058;DHT22;55017;52.848;6.748;2023-04-25T08:11:12;9.90;93.80
57058;DHT22;55017;52.848;6.748;2023-04-25T08:13:38;10.20;93.70
57058;DHT22;55017;52.848;6.748;2023-04-25T08:16:04;10.20;94.30
57058;DHT22;55017;52.848;6.748;2023-04-25T08:18:29;10.60;94.50
57058;DHT22;55017;52.848;6.748;2023-04-25T08:20:56;10.80;92.50
57058;DHT22;55017;52.848;6.748;2023-04-25T08:23:22;10.80;90.90
57058;DHT22;55017;52.848;6.748;2023-04-25T08:25:47;10.50;89.90
57058;DHT22;55017;52.848;6.748;2023-04-25T08:28:13;10.50;88.60
57058;DHT22;55017;52.848;6.748;2023-04-25T08:30:39;10.20;89.90
57058;DHT22;55017;52.848;6.748;2023-04-25T08:33:05;9.80;91.60
57058;DHT22;55017;52.848;6.748;2023-04-25T08:35:31;9.60;93.60
57058;DHT22;55017;52.848;6.748;2023-04-25T08:37:58;9.90;95.20
57058;DHT22;55017;52.848;6.748;2023-04-25T08:40:27;9.50;96.80
57058;DHT22;55017;52.848;6.748;2023-04-25T08:42:57;9.10;99.60
57058;DHT22;55017;52.848;6.748;2023-04-25T08:45:22;8.90;99.90
57058;DHT22;55017;52.848;6.748;2023-04-25T08:47:51;8.80;99.90
57058;DHT22;55017;52.848;6.748;2023-04-25T08:50:18;8.90;99.90
57058;DHT22;55017;52.848;6.748;2023-04-25T08:52:47;9.20;99.90
57058;DHT22;55017;52.848;6.748;2023-04-25T08:55:14;9.40;99.90
57058;DHT22;55017;52.848;6.748;2023-04-25T08:57:42;9.80;99.90
57058;DHT22;55017;52.848;6.748;2023-04-25T09:00:12;10.10;99.90
57058;DHT22;55017;52.848;6.748;2023-04-25T09:02:39;10.30;99.90
57058;DHT22;55017;52.848;6.748;2023-04-25T09:05:06;10.60;99.90
57058;DHT22;55017;52.848;6.748;2023-04-25T09:07:32;10.70;97.60
57058;DHT22;55017;52.848;6.748;2023-04-25T09:09:58;10.50;96.10
57058;DHT22;55017;52.848;6.748;2023-04-25T09:12:29;10.40;95.10
57058;DHT22;55017;52.848;6.748;2023-04-25T09:17:28;10.40;95.20
57058;DHT22;55017;52.848;6.748;2023-04-25T09:19:54;10.60;93.80
57058;DHT22;55017;52.848;6.748;2023-04-25T09:22:19;10.80;92.90
57058;DHT22;55017;52.848;6.748;2023-04-25T09:24:48;10.60;91.60
57058;DHT22;55017;52.848;6.748;2023-04-25T09:27:20;10.60;90.70
57058;DHT22;55017;52.848;6.748;2023-04-25T09:29:48;10.30;90.80
57058;DHT22;55017;52.848;6.748;2023-04-25T09:32:23;10.30;91.50
57058;DHT22;55017;52.848;6.748;2023-04-25T09:34:50;10.20;91.80
57058;DHT22;55017;52.848;6.748;2023-04-25T09:37:27;10.10;92.00
57058;DHT22;55017;52.848;6.748;2023-04-25T09:40:05;9.90;92.40
57058;DHT22;55017;52.848;6.748;2023-04-25T09:42:32;9.60;92.70
57058;DHT22;55017;52.848;6.748;2023-04-25T09:45:00;9.40;94.60
57058;DHT22;55017;52.848;6.748;2023-04-25T09:47:29;9.20;95.80
57058;DHT22;55017;52.848;6.748;2023-04-25T09:49:55;9.10;96.40
57058;DHT22;55017;52.848;6.748;2023-04-25T09:52:24;9.00;96.40
57058;DHT22;55017;52.848;6.748;2023-04-25T09:54:51;9.00;96.50
57058;DHT22;55017;52.848;6.748;2023-04-25T09:57:24;9.10;96.40
57058;DHT22;55017;52.848;6.748;2023-04-25T09:59:54;9.20;96.00
57058;DHT22;55017;52.848;6.748;2023-04-25T10:02:22;9.40;94.70
57058;DHT22;55017;52.848;6.748;2023-04-25T10:04:50;9.40;94.00
57058;DHT22;55017;52.848;6.748;2023-04-25T10:07:20;9.70;94.00
57058;DHT22;55017;52.848;6.748;2023-04-25T10:09:49;10.10;94.50
57058;DHT22;55017;52.848;6.748;2023-04-25T10:12:17;10.50;94.30
57058;DHT22;55017;52.848;6.748;2023-04-25T10:14:44;10.80;93.90
57058;DHT22;55017;52.848;6.748;2023-04-25T10:17:11;11.30;93.90
57058;DHT22;55017;52.848;6.748;2023-04-25T10:19:37;11.70;93.30
57058;DHT22;55017;52.848;6.748;2023-04-25T10:22:14;11.80;91.30
57058;DHT22;55017;52.848;6.748;2023-04-25T10:24:43;11.70;89.30
57058;DHT22;55017;52.848;6.748;2023-04-25T10:27:09;11.10;90.60
57058;DHT22;55017;52.848;6.748;2023-04-25T10:29:35;10.60;91.30
57058;DHT22;55017;52.848;6.748;2023-04-25T10:32:02;10.40;92.80
57058;DHT22;55017;52.848;6.748;2023-04-25T10:34:43;10.20;93.90
57058;DHT22;55017;52.848;6.748;2023-04-25T10:37:12;10.00;94.00
57058;DHT22;55017;52.848;6.748;2023-04-25T10:39:41;9.90;94.10
57058;DHT22;55017;52.848;6.748;2023-04-25T10:42:07;10.10;93.90
57058;DHT22;55017;52.848;6.748;2023-04-25T10:44:34;10.60;93.50
57058;DHT22;55017;52.848;6.748;2023-04-25T10:47:01;10.70;92.50
57058;DHT22;55017;52.848;6.748;2023-04-25T10:49:42;11.00;91.80
57058;DHT22;55017;52.848;6.748;2023-04-25T10:54:48;11.60;90.70
57058;DHT22;55017;52.848;6.748;2023-04-25T11:00:11;12.00;86.10
57058;DHT22;55017;52.848;6.748;2023-04-25T11:02:59;11.80;86.10
57058;DHT22;55017;52.848;6.748;2023-04-25T11:05:35;12.40;86.40
57058;DHT22;55017;52.848;6.748;2023-04-25T11:08:02;12.50;85.80
57058;DHT22;55017;52.848;6.748;2023-04-25T11:10:31;12.10;83.30
57058;DHT22;55017;52.848;6.748;2023-04-25T11:12:59;12.00;81.00
57058;DHT22;55017;52.848;6.748;2023-04-25T11:15:26;11.80;80.70
57058;DHT22;55017;52.848;6.748;2023-04-25T11:17:55;11.70;80.40
57058;DHT22;55017;52.848;6.748;2023-04-25T11:20:21;11.80;80.00
57058;DHT22;55017;52.848;6.748;2023-04-25T11:22:48;12.00;80.60
57058;DHT22;55017;52.848;6.748;2023-04-25T11:25:15;12.30;75.80
57058;DHT22;55017;52.848;6.748;2023-04-25T11:27:54;12.20;78.60
57058;DHT22;55017;52.848;6.748;2023-04-25T11:30:22;11.70;76.60
57058;DHT22;55017;52.848;6.748;2023-04-25T11:32:48;11.30;79.20
57058;DHT22;55017;52.848;6.748;2023-04-25T11:35:14;11.00;81.70
57058;DHT22;55017;52.848;6.748;2023-04-25T11:37:41;10.70;83.10
57058;DHT22;55017;52.848;6.748;2023-04-25T11:40:07;10.70;84.10
57058;DHT22;55017;52.848;6.748;2023-04-25T11:42:43;11.10;88.40
57058;DHT22;55017;52.848;6.748;2023-04-25T11:45:09;11.30;87.30
57058;DHT22;55017;52.848;6.748;2023-04-25T11:47:35;11.30;84.90
57058;DHT22;55017;52.848;6.748;2023-04-25T11:50:02;11.40;82.20
57058;DHT22;55017;52.848;6.748;2023-04-25T11:52:43;11.40;83.20
57058;DHT22;55017;52.848;6.748;2023-04-25T11:55:13;11.70;81.20
57058;DHT22;55017;52.848;6.748;2023-04-25T11:57:40;11.90;79.40
57058;DHT22;55017;52.848;6.748;2023-04-25T12:00:14;12.20;78.90
57058;DHT22;55017;52.848;6.748;2023-04-25T12:02:43;12.50;78.10
57058;DHT22;55017;52.848;6.748;2023-04-25T12:05:10;12.50;76.60
57058;DHT22;55017;52.848;6.748;2023-04-25T12:07:36;12.40;75.60
57058;DHT22;55017;52.848;6.748;2023-04-25T12:10:07;12.50;77.40
57058;DHT22;55017;52.848;6.748;2023-04-25T12:12:36;12.80;77.90
57058;DHT22;55017;52.848;6.748;2023-04-25T12:17:38;13.40;77.10
57058;DHT22;55017;52.848;6.748;2023-04-25T12:20:18;13.40;76.20
57058;DHT22;55017;52.848;6.748;2023-04-25T12:22:46;13.70;76.00
57058;DHT22;55017;52.848;6.748;2023-04-25T12:28:18;13.40;72.10
57058;DHT22;55017;52.848;6.748;2023-04-25T12:30:53;13.00;70.80
57058;DHT22;55017;52.848;6.748;2023-04-25T12:33:18;12.70;71.20
57058;DHT22;55017;52.848;6.748;2023-04-25T12:35:44;12.60;72.70
57058;DHT22;55017;52.848;6.748;2023-04-25T12:38:10;13.00;72.90
57058;DHT22;55017;52.848;6.748;2023-04-25T12:40:36;12.80;73.80
57058;DHT22;55017;52.848;6.748;2023-04-25T12:43:01;12.60;73.70
57058;DHT22;55017;52.848;6.748;2023-04-25T12:45:27;12.30;75.60
57058;DHT22;55017;52.848;6.748;2023-04-25T12:47:52;12.40;77.40
57058;DHT22;55017;52.848;6.748;2023-04-25T12:50:18;12.80;78.20
57058;DHT22;55017;52.848;6.748;2023-04-25T12:52:43;13.00;76.80
57058;DHT22;55017;52.848;6.748;2023-04-25T12:55:09;13.00;74.90
57058;DHT22;55017;52.848;6.748;2023-04-25T12:57:35;12.80;73.20
57058;DHT22;55017;52.848;6.748;2023-04-25T13:00:00;12.40;71.40
57058;DHT22;55017;52.848;6.748;2023-04-25T13:02:26;12.10;70.80
57058;DHT22;55017;52.848;6.748;2023-04-25T13:04:51;12.00;69.60
57058;DHT22;55017;52.848;6.748;2023-04-25T13:07:17;11.70;69.10
57058;DHT22;55017;52.848;6.748;2023-04-25T13:09:42;11.70;67.70
57058;DHT22;55017;52.848;6.748;2023-04-25T13:12:08;11.70;68.20
57058;DHT22;55017;52.848;6.748;2023-04-25T13:14:34;11.80;67.40
57058;DHT22;55017;52.848;6.748;2023-04-25T13:16:59;12.10;70.30
57058;DHT22;55017;52.848;6.748;2023-04-25T13:19:25;12.40;69.00
57058;DHT22;55017;52.848;6.748;2023-04-25T13:21:51;12.90;71.00
57058;DHT22;55017;52.848;6.748;2023-04-25T13:24:16;12.90;69.20
57058;DHT22;55017;52.848;6.748;2023-04-25T13:26:43;13.00;67.40
57058;DHT22;55017;52.848;6.748;2023-04-25T13:29:09;13.10;66.40
57058;DHT22;55017;52.848;6.748;2023-04-25T13:31:34;12.90;65.40
57058;DHT22;55017;52.848;6.748;2023-04-25T13:34:00;12.90;66.70
57058;DHT22;55017;52.848;6.748;2023-04-25T13:36:25;12.80;67.00
57058;DHT22;55017;52.848;6.748;2023-04-25T13:38:51;12.90;66.70
57058;DHT22;55017;52.848;6.748;2023-04-25T13:41:17;12.80;66.20
57058;DHT22;55017;52.848;6.748;2023-04-25T13:43:45;13.00;66.90
57058;DHT22;55017;52.848;6.748;2023-04-25T13:46:12;13.10;66.90
57058;DHT22;55017;52.848;6.748;2023-04-25T13:48:38;13.00;66.50
57058;DHT22;55017;52.848;6.748;2023-04-25T13:51:04;13.00;66.20
57058;DHT22;55017;52.848;6.748;2023-04-25T13:53:29;13.20;66.00
57058;DHT22;55017;52.848;6.748;2023-04-25T13:55:55;13.30;65.80
57058;DHT22;55017;52.848;6.748;2023-04-25T13:58:21;13.10;65.20
57058;DHT22;55017;52.848;6.748;2023-04-25T14:00:46;12.60;67.50
57058;DHT22;55017;52.848;6.748;2023-04-25T14:03:12;11.90;69.50
57058;DHT22;55017;52.848;6.748;2023-04-25T14:05:37;11.60;70.40
57058;DHT22;55017;52.848;6.748;2023-04-25T14:08:05;11.30;71.70
57058;DHT22;55017;52.848;6.748;2023-04-25T14:10:31;11.20;71.60
57058;DHT22;55017;52.848;6.748;2023-04-25T14:12:57;11.40;74.80
57058;DHT22;55017;52.848;6.748;2023-04-25T14:15:22;11.90;76.80
57058;DHT22;55017;52.848;6.748;2023-04-25T14:17:48;12.30;76.90
57058;DHT22;55017;52.848;6.748;2023-04-25T14:20:14;12.40;74.60
57058;DHT22;55017;52.848;6.748;2023-04-25T14:22:40;12.50;73.10
57058;DHT22;55017;52.848;6.748;2023-04-25T14:25:09;12.40;73.00
57058;DHT22;55017;52.848;6.748;2023-04-25T14:27:34;12.20;71.70
57058;DHT22;55017;52.848;6.748;2023-04-25T14:30:00;12.00;71.10
57058;DHT22;55017;52.848;6.748;2023-04-25T14:32:26;11.80;71.80
57058;DHT22;55017;52.848;6.748;2023-04-25T14:34:51;11.60;72.30
57058;DHT22;55017;52.848;6.748;2023-04-25T14:37:17;11.50;73.30
57058;DHT22;55017;52.848;6.748;2023-04-25T14:39:42;11.60;73.50
57058;DHT22;55017;52.848;6.748;2023-04-25T14:42:08;11.60;74.00
57058;DHT22;55017;52.848;6.748;2023-04-25T14:44:33;11.80;73.80
57058;DHT22;55017;52.848;6.748;2023-04-25T14:46:59;11.90;71.60
57058;DHT22;55017;52.848;6.748;2023-04-25T14:49:25;12.10;70.40
57058;DHT22;55017;52.848;6.748;2023-04-25T14:51:51;12.20;69.40
57058;DHT22;55017;52.848;6.748;2023-04-25T14:54:16;12.30;69.20
57058;DHT22;55017;52.848;6.748;2023-04-25T14:56:42;12.50;68.50
57058;DHT22;55017;52.848;6.748;2023-04-25T14:59:08;12.50;66.80
57058;DHT22;55017;52.848;6.748;2023-04-25T15:01:33;12.60;66.20
57058;DHT22;55017;52.848;6.748;2023-04-25T15:03:59;12.60;64.00
57058;DHT22;55017;52.848;6.748;2023-04-25T15:06:25;12.50;63.70
57058;DHT22;55017;52.848;6.748;2023-04-25T15:08:53;12.50;63.90
57058;DHT22;55017;52.848;6.748;2023-04-25T15:11:19;12.50;64.80
57058;DHT22;55017;52.848;6.748;2023-04-25T15:13:45;12.40;65.20
57058;DHT22;55017;52.848;6.748;2023-04-25T15:16:11;12.30;65.00
57058;DHT22;55017;52.848;6.748;2023-04-25T15:18:37;12.30;65.10
57058;DHT22;55017;52.848;6.748;2023-04-25T15:21:02;12.30;65.90
57058;DHT22;55017;52.848;6.748;2023-04-25T15:23:28;12.10;66.70
57058;DHT22;55017;52.848;6.748;2023-04-25T15:25:54;12.00;67.70
57058;DHT22;55017;52.848;6.748;2023-04-25T15:28:21;11.70;67.80
57058;DHT22;55017;52.848;6.748;2023-04-25T15:30:47;11.50;69.00
57058;DHT22;55017;52.848;6.748;2023-04-25T15:33:13;11.40;70.00
57058;DHT22;55017;52.848;6.748;2023-04-25T15:35:38;11.40;69.00
57058;DHT22;55017;52.848;6.748;2023-04-25T15:38:04;11.20;67.80
57058;DHT22;55017;52.848;6.748;2023-04-25T15:40:30;11.30;67.30
57058;DHT22;55017;52.848;6.748;2023-04-25T15:42:56;11.20;65.40
57058;DHT22;55017;52.848;6.748;2023-04-25T15:45:23;11.10;65.80
57058;DHT22;55017;52.848;6.748;2023-04-25T15:47:51;11.00;63.80
57058;DHT22;55017;52.848;6.748;2023-04-25T15:50:19;10.90;63.60